createdAt,value
2019-03-15T00:00:56.101Z,9.79
2019-03-15T00:01:54.706Z,9.72
2019-03-15T00:02:53.713Z,9.78
2019-03-15T00:03:52.357Z,9.87
2019-03-15T00:04:50.975Z,9.84
2019-03-15T00:05:49.709Z,9.84
2019-03-15T00:06:48.431Z,9.79
2019-03-15T00:07:47.176Z,9.86
2019-03-15T00:08:45.874Z,9.97
2019-03-15T00:09:44.525Z,9.86
2019-03-15T00:10:43.153Z,9.79
2019-03-15T00:11:41.867Z,9.87
2019-03-15T00:12:40.566Z,9.78
2019-03-15T00:13:39.414Z,9.83
2019-03-15T00:14:38.091Z,9.79
2019-03-15T00:15:36.741Z,9.74
2019-03-15T00:16:35.496Z,9.71
2019-03-15T00:17:34.174Z,9.68
2019-03-15T00:18:32.876Z,9.75
2019-03-15T00:19:31.628Z,9.68
2019-03-15T00:20:30.278Z,9.72
2019-03-15T00:21:29.059Z,9.68
2019-03-15T00:22:27.899Z,9.66
2019-03-15T00:23:26.558Z,9.76
2019-03-15T00:24:25.189Z,9.6
2019-03-15T00:25:23.825Z,9.75
2019-03-15T00:26:22.447Z,9.74
2019-03-15T00:27:21.177Z,9.68
2019-03-15T00:28:20.020Z,9.61
2019-03-15T00:29:18.658Z,9.76
2019-03-15T00:30:17.246Z,9.74
2019-03-15T00:31:15.839Z,9.68
2019-03-15T00:32:14.428Z,9.78
2019-03-15T00:33:13.007Z,9.72
2019-03-15T00:34:11.811Z,9.68
2019-03-15T00:35:10.476Z,9.65
2019-03-15T00:36:09.163Z,9.57
2019-03-15T00:37:07.893Z,9.51
2019-03-15T00:38:06.522Z,9.6
2019-03-15T00:39:05.227Z,9.57
2019-03-15T00:40:04.008Z,9.61
2019-03-15T00:41:02.715Z,9.51
2019-03-15T00:42:01.443Z,9.58
2019-03-15T00:43:00.106Z,9.57
2019-03-15T00:43:58.711Z,9.54
2019-03-15T00:44:57.371Z,9.58
2019-03-15T00:45:56.070Z,9.65
2019-03-15T00:46:54.699Z,9.76
2019-03-15T00:47:53.371Z,9.58
2019-03-15T00:48:52.018Z,9.68
2019-03-15T00:49:50.610Z,9.65
2019-03-15T00:50:49.823Z,9.58
2019-03-15T00:51:48.438Z,9.53
2019-03-15T00:52:47.083Z,9.53
2019-03-15T00:53:45.637Z,9.53
2019-03-15T00:54:44.375Z,9.58
2019-03-15T00:55:43.108Z,9.58
2019-03-15T00:56:41.855Z,9.65
2019-03-15T00:57:40.516Z,9.72
2019-03-15T00:58:39.235Z,9.65
2019-03-15T00:59:37.859Z,9.6
2019-03-15T01:00:36.520Z,9.74
2019-03-15T01:01:35.193Z,9.71
2019-03-15T01:02:33.997Z,9.79
2019-03-15T01:03:32.605Z,9.78
2019-03-15T01:04:31.289Z,9.78
2019-03-15T01:05:29.911Z,9.79
2019-03-15T01:06:28.549Z,9.79
2019-03-15T01:07:27.230Z,9.69
2019-03-15T01:08:25.977Z,9.76
2019-03-15T01:09:24.653Z,9.74
2019-03-15T01:10:23.371Z,9.79
2019-03-15T01:11:22.571Z,9.72
2019-03-15T01:12:21.235Z,9.79
2019-03-15T01:13:19.926Z,9.78
2019-03-15T01:14:18.570Z,9.75
2019-03-15T01:15:17.322Z,9.83
2019-03-15T01:16:16.049Z,9.94
2019-03-15T01:17:14.691Z,9.94
2019-03-15T01:18:13.510Z,9.9
2019-03-15T01:19:12.137Z,9.91
2019-03-15T01:20:10.747Z,9.89
2019-03-15T01:21:09.587Z,9.89
2019-03-15T01:22:08.260Z,9.9
2019-03-15T01:23:06.880Z,9.93
2019-03-15T01:24:05.519Z,9.93
2019-03-15T01:25:04.192Z,9.93
2019-03-15T01:26:02.790Z,9.96
2019-03-15T01:27:01.416Z,9.97
2019-03-15T01:28:00.182Z,10.05
2019-03-15T01:28:58.960Z,9.99
2019-03-15T01:29:57.651Z,10.02
2019-03-15T01:30:56.271Z,10.04
2019-03-15T01:31:55.451Z,9.96
2019-03-15T01:32:54.107Z,10.04
2019-03-15T01:33:52.724Z,10.07
2019-03-15T01:34:51.367Z,10.07
2019-03-15T01:35:49.977Z,10.09
2019-03-15T01:36:48.572Z,9.96
2019-03-15T01:37:47.216Z,10.08
2019-03-15T01:38:45.984Z,9.93
2019-03-15T01:39:44.676Z,10.11
2019-03-15T01:40:43.416Z,10.05
2019-03-15T01:41:42.080Z,10.04
2019-03-15T01:42:40.781Z,9.99
2019-03-15T01:43:39.486Z,9.97
2019-03-15T01:44:38.109Z,10.02
2019-03-15T01:45:36.723Z,10.07
2019-03-15T01:46:35.364Z,10.04
2019-03-15T01:47:34.024Z,10.11
2019-03-15T01:48:32.685Z,10.18
2019-03-15T01:49:31.311Z,10.22
2019-03-15T01:50:29.962Z,10.26
2019-03-15T01:51:28.584Z,10.14
2019-03-15T01:52:27.301Z,10.29
2019-03-15T01:53:25.943Z,10.17
2019-03-15T01:54:24.552Z,10.15
2019-03-15T01:55:23.245Z,10.2
2019-03-15T01:56:21.896Z,10.25
2019-03-15T01:57:20.518Z,10.36
2019-03-15T01:58:19.313Z,10.42
2019-03-15T01:59:18.066Z,10.41
2019-03-15T02:00:16.737Z,10.42
2019-03-15T02:01:15.486Z,10.52
2019-03-15T02:02:14.208Z,10.42
2019-03-15T02:03:13.507Z,10.36
2019-03-15T02:04:11.640Z,10.4
2019-03-15T02:05:10.269Z,10.32
2019-03-15T02:06:08.947Z,10.32
2019-03-15T02:07:07.628Z,10.36
2019-03-15T02:08:06.357Z,10.34
2019-03-15T02:09:05.058Z,10.3
2019-03-15T02:10:03.698Z,10.34
2019-03-15T02:11:02.358Z,10.36
2019-03-15T02:12:01.066Z,10.42
2019-03-15T02:12:59.993Z,10.4
2019-03-15T02:13:58.682Z,10.38
2019-03-15T02:14:57.360Z,10.34
2019-03-15T02:15:56.050Z,10.18
2019-03-15T02:16:54.674Z,10.34
2019-03-15T02:19:35.410Z,10.32
2019-03-15T02:20:33.795Z,10.3
2019-03-15T02:21:32.396Z,10.36
2019-03-15T02:22:31.147Z,10.26
2019-03-15T02:23:29.888Z,10.15
2019-03-15T02:24:28.515Z,10.18
2019-03-15T02:25:27.546Z,10.26
2019-03-15T02:26:25.849Z,10.23
2019-03-15T02:27:24.485Z,10.29
2019-03-15T02:28:23.241Z,10.34
2019-03-15T02:29:22.007Z,10.26
2019-03-15T02:30:20.730Z,10.29
2019-03-15T02:31:20.429Z,10.34
2019-03-15T02:32:18.045Z,10.22
2019-03-15T02:34:58.506Z,10.36
2019-03-15T02:35:57.164Z,10.36
2019-03-15T02:36:55.830Z,10.36
2019-03-15T02:37:54.455Z,10.41
2019-03-15T02:38:53.978Z,10.36
2019-03-15T02:39:51.742Z,10.33
2019-03-15T02:47:48.811Z,10.34
2019-03-15T02:48:47.607Z,10.34
2019-03-15T02:49:46.237Z,10.41
2019-03-15T02:50:44.912Z,10.4
2019-03-15T02:51:43.717Z,10.44
2019-03-15T02:52:42.598Z,10.34
2019-03-15T02:53:41.036Z,10.32
2019-03-15T02:54:39.762Z,10.38
2019-03-15T02:55:38.354Z,10.34
2019-03-15T02:56:36.987Z,10.4
2019-03-15T02:57:35.970Z,10.4
2019-03-15T02:58:34.213Z,10.32
2019-03-15T02:59:32.866Z,10.4
2019-03-15T03:00:31.787Z,10.33
2019-03-15T03:01:30.422Z,10.33
2019-03-15T03:02:29.062Z,10.33
2019-03-15T03:03:27.793Z,10.27
2019-03-15T03:04:26.431Z,10.15
2019-03-15T03:05:25.162Z,10.17
2019-03-15T03:06:23.884Z,10.15
2019-03-15T03:07:22.488Z,10.2
2019-03-15T03:08:21.139Z,10.27
2019-03-15T03:09:19.764Z,10.3
2019-03-15T03:10:18.440Z,10.23
2019-03-15T03:11:17.119Z,10.18
2019-03-15T03:12:17.432Z,10.07
2019-03-15T03:13:14.573Z,10.09
2019-03-15T03:15:54.741Z,10.14
2019-03-15T03:16:53.385Z,10.15
2019-03-15T03:17:51.994Z,10.25
2019-03-15T03:18:50.690Z,10.23
2019-03-15T03:19:49.537Z,10.2
2019-03-15T03:20:48.556Z,10.17
2019-03-15T03:21:46.821Z,10.08
2019-03-15T03:22:45.531Z,10.08
2019-03-15T03:23:44.119Z,10.18
2019-03-15T03:24:43.764Z,10.05
2019-03-15T03:25:42.551Z,10.09
2019-03-15T03:26:41.854Z,10.14
2019-03-15T03:27:40.487Z,10.12
2019-03-15T03:28:39.224Z,10.05
2019-03-15T03:29:37.865Z,10.11
2019-03-15T03:30:36.606Z,10.15
2019-03-15T03:31:35.270Z,10.17
2019-03-15T03:32:33.989Z,10.17
2019-03-15T03:33:32.605Z,10.27
2019-03-15T03:34:31.285Z,10.15
2019-03-15T03:35:30.014Z,10.15
2019-03-15T03:36:28.668Z,10.29
2019-03-15T03:37:27.366Z,10.15
2019-03-15T03:38:26.075Z,10.15
2019-03-15T03:39:24.784Z,10.04
2019-03-15T03:40:23.609Z,10.05
2019-03-15T03:41:23.132Z,10.14
2019-03-15T03:42:20.880Z,10.15
2019-03-15T03:43:19.809Z,10.14
2019-03-15T03:44:18.451Z,10.2
2019-03-15T03:45:17.061Z,10.15
2019-03-15T03:46:15.632Z,10.09
2019-03-15T03:47:14.200Z,10.04
2019-03-15T03:48:15.614Z,10.04
2019-03-15T03:49:11.527Z,10.22
2019-03-15T03:50:10.163Z,10.05
2019-03-15T03:51:08.916Z,10.12
2019-03-15T03:52:07.624Z,10.09
2019-03-15T03:53:06.283Z,10.07
2019-03-15T03:54:05.002Z,10.09
2019-03-15T03:55:03.892Z,10.2
2019-03-15T03:56:02.505Z,10.23
2019-03-15T03:57:01.213Z,10.08
2019-03-15T03:57:59.911Z,10.14
2019-03-15T03:58:58.629Z,10.14
2019-03-15T03:59:57.281Z,10.17
2019-03-15T04:02:37.837Z,10.18
2019-03-15T04:03:36.411Z,10.17
2019-03-15T04:04:35.150Z,10.2
2019-03-15T04:05:33.850Z,10.27
2019-03-15T04:06:32.476Z,10.22
2019-03-15T04:07:31.222Z,10.11
2019-03-15T04:08:29.886Z,10.08
2019-03-15T04:12:51.733Z,10.14
2019-03-15T04:16:56.645Z,10.27
2019-03-15T04:17:55.299Z,10.17
2019-03-15T04:20:12.268Z,10.14
2019-03-15T04:21:10.996Z,10.29
2019-03-15T04:22:09.847Z,10.26
2019-03-15T04:24:34.852Z,10.29
2019-03-15T04:25:33.600Z,10.25
2019-03-15T04:26:32.285Z,10.29
2019-03-15T04:27:30.893Z,10.34
2019-03-15T04:28:29.748Z,10.36
2019-03-15T04:44:32.604Z,10.34
2019-03-15T04:45:31.331Z,10.38
2019-03-15T04:46:30.102Z,10.38
2019-03-15T04:47:28.719Z,10.47
2019-03-15T04:48:27.387Z,10.36
2019-03-15T04:49:26.122Z,10.41
2019-03-15T04:50:24.756Z,10.55
2019-03-15T04:51:23.497Z,10.53
2019-03-15T04:52:22.103Z,10.51
2019-03-15T04:53:20.777Z,10.53
2019-03-15T04:54:19.546Z,10.51
2019-03-15T04:55:18.237Z,10.52
2019-03-15T04:56:16.864Z,10.52
2019-03-15T04:57:15.541Z,10.53
2019-03-15T04:58:14.172Z,10.55
2019-03-15T04:59:12.759Z,10.44
2019-03-15T05:00:11.305Z,10.55
2019-03-15T05:01:09.991Z,10.52
2019-03-15T05:02:08.605Z,10.52
2019-03-15T05:03:07.334Z,10.56
2019-03-15T05:04:06.008Z,10.51
2019-03-15T05:05:05.678Z,10.63
2019-03-15T05:06:04.372Z,10.61
2019-03-15T05:07:02.975Z,10.55
2019-03-15T05:08:01.911Z,10.56
2019-03-15T05:09:00.627Z,10.66
2019-03-15T05:09:59.276Z,10.59
2019-03-15T05:10:58.032Z,10.45
2019-03-15T05:11:56.636Z,10.53
2019-03-15T05:12:55.262Z,10.4
2019-03-15T05:13:53.935Z,10.42
2019-03-15T05:14:52.598Z,10.56
2019-03-15T05:15:51.298Z,10.55
2019-03-15T05:16:49.925Z,10.55
2019-03-15T05:17:48.575Z,10.48
2019-03-15T05:18:47.169Z,10.4
2019-03-15T05:19:45.882Z,10.4
2019-03-15T05:20:44.460Z,10.32
2019-03-15T05:21:43.027Z,10.29
2019-03-15T05:22:41.857Z,10.34
2019-03-15T05:23:40.420Z,10.26
2019-03-15T05:24:39.041Z,10.22
2019-03-15T05:25:37.681Z,10.08
2019-03-15T05:26:36.259Z,10.15
2019-03-15T05:27:34.992Z,10.17
2019-03-15T05:28:33.717Z,10.2
2019-03-15T05:29:32.373Z,10.2
2019-03-15T05:30:31.275Z,10.15
2019-03-15T05:31:29.847Z,10.18
2019-03-15T05:32:30.871Z,10.32
2019-03-15T05:33:27.204Z,10.23
2019-03-15T05:34:25.984Z,10.22
2019-03-15T05:35:24.609Z,10.32
2019-03-15T05:36:23.235Z,10.29
2019-03-15T05:37:21.918Z,10.36
2019-03-15T05:38:20.509Z,10.3
2019-03-15T05:39:19.199Z,10.29
2019-03-15T05:40:18.027Z,10.36
2019-03-15T05:41:16.600Z,10.17
2019-03-15T05:42:15.377Z,10.22
2019-03-15T05:43:15.221Z,10.14
2019-03-15T05:44:14.166Z,10.23
2019-03-15T05:45:12.774Z,10.18
2019-03-15T05:46:11.474Z,10.05
2019-03-15T05:47:10.009Z,10.17
2019-03-15T05:48:08.962Z,10.27
2019-03-15T05:49:07.739Z,10.29
2019-03-15T05:50:06.430Z,10.14
2019-03-15T05:51:05.107Z,10.18
2019-03-15T05:52:03.854Z,10.15
2019-03-15T05:53:02.556Z,10.17
2019-03-15T05:54:01.300Z,10.29
2019-03-15T05:55:00.070Z,10.33
2019-03-15T05:55:58.681Z,10.33
2019-03-15T05:56:57.337Z,10.18
2019-03-15T05:57:55.925Z,10.27
2019-03-15T05:58:54.594Z,10.34
2019-03-15T05:59:53.354Z,10.38
2019-03-15T06:00:52.088Z,10.25
2019-03-15T06:01:50.800Z,10.17
2019-03-15T06:02:49.496Z,10.22
2019-03-15T06:03:49.175Z,10.2
2019-03-15T06:04:46.878Z,10.23
2019-03-15T06:05:45.541Z,10.29
2019-03-15T06:06:44.231Z,10.32
2019-03-15T06:07:42.796Z,10.2
2019-03-15T06:08:41.355Z,10.3
2019-03-15T06:09:39.994Z,10.22
2019-03-15T06:10:38.612Z,10.14
2019-03-15T06:11:37.878Z,10.11
2019-03-15T06:12:36.578Z,10.22
2019-03-15T06:13:35.276Z,10.27
2019-03-15T06:14:34.116Z,10.12
2019-03-15T06:15:32.630Z,10.26
2019-03-15T06:16:31.297Z,10.25
2019-03-15T06:17:29.949Z,10.3
2019-03-15T06:18:28.786Z,10.18
2019-03-15T06:19:27.624Z,10.12
2019-03-15T06:20:26.421Z,10.33
2019-03-15T06:21:25.003Z,10.36
2019-03-15T06:22:23.740Z,10.29
2019-03-15T06:23:22.388Z,10.27
2019-03-15T06:24:21.167Z,10.4
2019-03-15T06:25:19.768Z,10.32
2019-03-15T06:26:18.448Z,10.33
2019-03-15T06:27:17.080Z,10.32
2019-03-15T06:28:15.758Z,10.44
2019-03-15T06:29:14.380Z,10.26
2019-03-15T06:30:13.638Z,10.33
2019-03-15T06:31:12.550Z,10.3
2019-03-15T06:32:11.422Z,10.3
2019-03-15T06:33:10.170Z,10.29
2019-03-15T06:34:08.933Z,10.26
2019-03-15T06:35:07.591Z,10.32
2019-03-15T06:36:06.222Z,10.29
2019-03-15T06:37:05.200Z,10.33
2019-03-15T06:38:03.982Z,10.27
2019-03-15T06:39:02.558Z,10.3
2019-03-15T06:40:01.449Z,10.3
2019-03-15T06:41:00.406Z,10.32
2019-03-15T06:41:58.709Z,10.29
2019-03-15T06:42:57.289Z,10.27
2019-03-15T06:43:55.885Z,10.27
2019-03-15T06:44:58.077Z,10.29
2019-03-15T06:45:53.360Z,10.15
2019-03-15T06:48:37.832Z,10.07
2019-03-15T06:49:36.413Z,10.11
2019-03-15T06:50:35.093Z,10.2
2019-03-15T06:51:33.850Z,10.12
2019-03-15T06:52:32.421Z,10.17
2019-03-15T06:53:31.026Z,10.17
2019-03-15T07:17:27.733Z,10.55
2019-03-15T07:18:26.390Z,10.53
2019-03-15T07:19:27.455Z,10.53
2019-03-15T07:20:23.978Z,10.51
2019-03-15T07:21:22.586Z,10.53
2019-03-15T07:22:21.304Z,10.53
2019-03-15T07:23:19.905Z,10.47
2019-03-15T07:24:24.752Z,10.53
2019-03-15T07:25:17.206Z,10.53
2019-03-15T07:26:16.018Z,10.63
2019-03-15T07:27:14.659Z,10.6
2019-03-15T07:28:13.346Z,10.73
2019-03-15T07:29:12.095Z,10.7
2019-03-15T07:30:10.722Z,10.7
2019-03-15T07:31:09.715Z,10.64
2019-03-15T07:32:08.367Z,10.66
2019-03-15T07:33:06.958Z,10.6
2019-03-15T07:34:05.854Z,10.81
2019-03-15T07:35:04.565Z,10.74
2019-03-15T07:36:03.071Z,10.7
2019-03-15T07:37:01.809Z,10.61
2019-03-15T07:38:00.584Z,10.74
2019-03-15T07:38:59.369Z,10.81
2019-03-15T07:39:58.026Z,10.78
2019-03-15T07:40:56.561Z,10.73
2019-03-15T07:41:55.205Z,10.89
2019-03-15T07:42:53.872Z,10.81
2019-03-15T07:43:52.499Z,10.85
2019-03-15T07:44:52.165Z,10.88
2019-03-15T07:45:50.809Z,10.88
2019-03-15T07:46:50.981Z,10.96
2019-03-15T07:47:48.230Z,11.02
2019-03-15T07:48:46.865Z,10.96
2019-03-15T07:49:45.700Z,10.97
2019-03-15T07:50:44.341Z,11.03
2019-03-15T07:51:42.978Z,10.92
2019-03-15T07:52:41.672Z,10.91
2019-03-15T07:53:40.271Z,10.88
2019-03-15T07:54:38.891Z,10.91
2019-03-15T07:55:37.570Z,10.79
2019-03-15T07:56:36.275Z,10.96
2019-03-15T07:57:34.898Z,11.07
2019-03-15T07:58:33.793Z,10.96
2019-03-15T07:59:32.295Z,10.99
2019-03-15T08:00:31.008Z,10.86
2019-03-15T08:01:29.698Z,10.86
2019-03-15T08:02:28.309Z,10.89
2019-03-15T08:03:26.896Z,10.92
2019-03-15T08:04:25.558Z,10.91
2019-03-15T08:05:24.152Z,11
2019-03-15T08:06:33.958Z,11.04
2019-03-15T08:07:21.585Z,11.09
2019-03-15T08:08:20.154Z,10.94
2019-03-15T08:09:18.808Z,10.94
2019-03-15T08:10:17.501Z,10.92
2019-03-15T08:11:16.113Z,10.84
2019-03-15T08:12:14.749Z,10.85
2019-03-15T08:13:13.421Z,10.81
2019-03-15T08:14:12.156Z,10.89
2019-03-15T08:15:10.837Z,10.96
2019-03-15T08:16:09.593Z,11
2019-03-15T08:17:08.231Z,10.99
2019-03-15T08:18:06.937Z,10.94
2019-03-15T08:19:05.808Z,10.92
2019-03-15T08:20:04.414Z,11
2019-03-15T08:21:03.130Z,11.07
2019-03-15T08:22:01.733Z,10.92
2019-03-15T08:23:00.372Z,11
2019-03-15T08:23:59.014Z,10.97
2019-03-15T08:24:57.691Z,10.97
2019-03-15T08:25:56.345Z,11.03
2019-03-15T08:26:54.962Z,11.03
2019-03-15T08:27:53.632Z,11.06
2019-03-15T08:28:52.264Z,10.96
2019-03-15T08:29:52.632Z,11.06
2019-03-15T08:30:49.665Z,11
2019-03-15T08:31:48.300Z,10.88
2019-03-15T08:32:46.883Z,10.91
2019-03-15T08:33:45.697Z,10.97
2019-03-15T08:34:44.317Z,10.94
2019-03-15T08:35:43.101Z,11.07
2019-03-15T08:36:41.742Z,11.02
2019-03-15T08:37:40.422Z,10.92
2019-03-15T08:38:47.054Z,10.97
2019-03-15T08:39:37.818Z,10.92
2019-03-15T08:40:36.487Z,10.97
2019-03-15T08:41:35.352Z,11.03
2019-03-15T08:42:34.709Z,10.97
2019-03-15T08:43:32.656Z,10.89
2019-03-15T08:44:31.324Z,10.97
2019-03-15T08:45:30.051Z,11.03
2019-03-15T08:46:28.788Z,11.09
2019-03-15T08:47:27.521Z,11.18
2019-03-15T08:48:26.208Z,11.09
2019-03-15T08:49:24.848Z,11.15
2019-03-15T08:50:24.603Z,11.19
2019-03-15T08:51:22.249Z,11.33
2019-03-15T08:52:21.007Z,11.24
2019-03-15T08:53:19.920Z,11.32
2019-03-15T08:54:19.001Z,11.29
2019-03-15T08:55:18.016Z,11.29
2019-03-15T08:56:16.671Z,11.27
2019-03-15T08:57:15.441Z,11.32
2019-03-15T08:58:20.349Z,11.28
2019-03-15T08:59:12.921Z,11.32
2019-03-15T09:00:11.535Z,11.32
2019-03-15T09:01:11.013Z,11.35
2019-03-15T09:02:08.774Z,11.36
2019-03-15T09:03:07.634Z,11.39
2019-03-15T09:04:06.460Z,11.28
2019-03-15T09:05:05.073Z,11.29
2019-03-15T09:06:03.828Z,11.24
2019-03-15T09:07:02.446Z,11.42
2019-03-15T09:08:01.133Z,11.51
2019-03-15T09:08:59.793Z,11.51
2019-03-15T09:09:58.952Z,11.47
2019-03-15T09:11:45.300Z,11.46
2019-03-15T09:12:43.985Z,11.54
2019-03-15T09:13:42.674Z,11.58
2019-03-15T09:14:41.505Z,11.58
2019-03-15T09:15:40.263Z,11.61
2019-03-15T09:16:38.913Z,11.58
2019-03-15T09:17:37.638Z,11.73
2019-03-15T09:18:36.397Z,11.58
2019-03-15T09:21:16.875Z,11.6
2019-03-15T09:22:15.659Z,11.61
2019-03-15T09:23:14.337Z,11.76
2019-03-15T09:24:13.004Z,11.78
2019-03-15T09:25:18.930Z,11.7
2019-03-15T09:26:10.707Z,11.85
2019-03-15T09:27:10.439Z,11.9
2019-03-15T09:28:07.808Z,11.76
2019-03-15T09:29:06.403Z,11.78
2019-03-15T09:30:05.022Z,11.75
2019-03-15T09:31:03.811Z,11.83
2019-03-15T09:32:06.305Z,11.82
2019-03-15T09:33:03.100Z,11.96
2019-03-15T09:34:00.001Z,11.98
2019-03-15T09:34:58.627Z,12.09
2019-03-15T09:35:57.327Z,12.05
2019-03-15T09:36:56.011Z,11.96
2019-03-15T09:37:54.594Z,12.05
2019-03-15T09:38:53.272Z,11.96
2019-03-15T09:39:52.038Z,12.04
2019-03-15T09:40:50.665Z,12.16
2019-03-15T09:41:49.360Z,12.16
2019-03-15T09:42:47.986Z,12.12
2019-03-15T09:43:46.691Z,12.02
2019-03-15T09:44:45.476Z,12.04
2019-03-15T09:45:44.619Z,12.16
2019-03-15T09:46:43.390Z,12.14
2019-03-15T09:47:42.231Z,12.28
2019-03-15T09:48:43.604Z,12.28
2019-03-15T09:49:39.555Z,12.28
2019-03-15T09:50:50.410Z,12.23
2019-03-15T09:51:37.081Z,12.34
2019-03-15T09:52:35.880Z,12.34
2019-03-15T09:53:34.504Z,12.35
2019-03-15T09:54:33.119Z,12.62
2019-03-15T09:55:33.415Z,12.57
2019-03-15T09:56:30.560Z,12.71
2019-03-15T09:57:29.285Z,12.64
2019-03-15T09:58:28.157Z,12.75
2019-03-15T09:59:26.816Z,12.7
2019-03-15T10:00:25.568Z,12.54
2019-03-15T10:01:34.596Z,12.59
2019-03-15T10:02:29.898Z,12.65
2019-03-15T10:03:22.674Z,12.62
2019-03-15T10:04:20.483Z,12.65
2019-03-15T10:05:19.026Z,12.68
2019-03-15T10:06:19.476Z,12.6
2019-03-15T10:07:16.601Z,12.7
2019-03-15T10:08:15.122Z,12.7
2019-03-15T10:09:13.842Z,12.53
2019-03-15T10:10:13.644Z,12.7
2019-03-15T10:11:11.126Z,12.68
2019-03-15T10:12:09.832Z,12.72
2019-03-15T10:13:08.449Z,12.71
2019-03-15T10:14:07.207Z,12.86
2019-03-15T10:15:07.881Z,12.79
2019-03-15T10:16:05.219Z,12.78
2019-03-15T10:17:03.922Z,12.85
2019-03-15T10:18:02.535Z,12.9
2019-03-15T10:19:01.112Z,12.86
2019-03-15T10:19:59.846Z,12.85
2019-03-15T10:20:58.510Z,12.83
2019-03-15T10:21:57.280Z,12.86
2019-03-15T10:23:05.081Z,12.74
2019-03-15T10:23:54.714Z,12.72
2019-03-15T10:24:53.398Z,12.62
2019-03-15T10:25:52.184Z,12.64
2019-03-15T10:26:50.851Z,12.68
2019-03-15T10:27:49.583Z,12.57
2019-03-15T10:28:48.176Z,12.62
2019-03-15T10:29:46.880Z,12.71
2019-03-15T10:30:45.508Z,12.7
2019-03-15T10:31:44.347Z,12.72
2019-03-15T10:32:42.948Z,12.77
2019-03-15T10:33:50.058Z,12.86
2019-03-15T10:34:40.239Z,12.83
2019-03-15T10:35:38.908Z,12.78
2019-03-15T10:36:37.563Z,12.72
2019-03-15T10:37:36.365Z,12.75
2019-03-15T10:38:34.999Z,12.79
2019-03-15T10:39:33.681Z,12.74
2019-03-15T10:40:32.306Z,12.71
2019-03-15T10:41:31.440Z,12.79
2019-03-15T10:42:30.267Z,12.72
2019-03-15T10:43:28.901Z,12.79
2019-03-15T10:44:27.712Z,12.86
2019-03-15T10:45:26.288Z,12.89
2019-03-15T10:46:25.006Z,12.97
2019-03-15T10:47:23.899Z,12.97
2019-03-15T10:48:25.346Z,12.93
2019-03-15T10:49:21.245Z,12.96
2019-03-15T10:50:19.927Z,12.89
2019-03-15T10:51:18.488Z,12.77
2019-03-15T10:52:17.251Z,12.85
2019-03-15T10:53:15.852Z,12.83
2019-03-15T10:54:14.445Z,12.96
2019-03-15T10:55:13.017Z,12.78
2019-03-15T10:56:11.853Z,12.89
2019-03-15T10:57:10.435Z,12.96
2019-03-15T10:58:09.045Z,12.83
2019-03-15T10:59:07.766Z,12.85
2019-03-15T11:00:06.439Z,12.97
2019-03-15T11:01:05.073Z,12.85
2019-03-15T11:02:03.803Z,12.92
2019-03-15T11:03:02.374Z,12.96
2019-03-15T11:04:00.982Z,12.93
2019-03-15T11:05:00.124Z,12.96
2019-03-15T11:05:58.746Z,12.97
2019-03-15T11:06:57.275Z,12.97
2019-03-15T11:07:55.985Z,13.05
2019-03-15T11:08:54.639Z,13.01
2019-03-15T11:09:53.501Z,13.01
2019-03-15T11:10:52.419Z,12.93
2019-03-15T11:11:50.947Z,13.01
2019-03-15T11:12:49.662Z,12.97
2019-03-15T11:13:48.255Z,13.14
2019-03-15T11:14:46.836Z,13.1
2019-03-15T11:15:45.583Z,13.23
2019-03-15T11:16:44.360Z,13.2
2019-03-15T11:17:42.985Z,13.19
2019-03-15T11:18:41.664Z,13.15
2019-03-15T11:19:40.341Z,13.19
2019-03-15T11:23:19.606Z,13.33
2019-03-15T11:24:18.279Z,13.36
2019-03-15T11:25:16.864Z,13.3
2019-03-15T11:26:15.612Z,13.38
2019-03-15T11:27:14.481Z,13.38
2019-03-15T11:28:13.173Z,13.3
2019-03-15T11:29:11.968Z,13.26
2019-03-15T11:31:44.281Z,13.22
2019-03-15T11:32:42.933Z,13.2
2019-03-15T11:33:41.637Z,13.1
2019-03-15T11:34:40.270Z,13.1
2019-03-15T11:35:38.879Z,13.14
2019-03-15T11:36:37.536Z,13.15
2019-03-15T11:37:36.321Z,13.19
2019-03-15T11:38:34.960Z,13.19
2019-03-15T11:39:33.712Z,13.08
2019-03-15T11:40:32.312Z,13.14
2019-03-15T11:41:30.918Z,13.15
2019-03-15T11:42:29.535Z,13.12
2019-03-15T11:43:28.148Z,13.01
2019-03-15T11:44:26.813Z,13.01
2019-03-15T11:45:25.585Z,13.01
2019-03-15T11:46:24.257Z,12.97
2019-03-15T11:47:23.038Z,13
2019-03-15T11:49:28.052Z,13.08
2019-03-15T11:50:23.872Z,13.08
2019-03-15T11:51:22.545Z,13.07
2019-03-15T11:52:21.198Z,13.11
2019-03-15T11:53:19.823Z,13.12
2019-03-15T11:55:54.840Z,13.2
2019-03-15T11:56:53.638Z,13.26
2019-03-15T11:57:52.436Z,13.17
2019-03-15T11:58:50.991Z,13.2
2019-03-15T11:59:49.727Z,13.23
2019-03-15T12:00:48.404Z,13.32
2019-03-15T12:01:47.284Z,13.2
2019-03-15T12:02:46.054Z,13.11
2019-03-15T12:03:52.742Z,13.25
2019-03-15T12:04:43.387Z,13.14
2019-03-15T12:05:42.057Z,13.2
2019-03-15T12:06:40.668Z,13.17
2019-03-15T12:07:39.869Z,13.26
2019-03-15T12:08:38.454Z,13.08
2019-03-15T12:09:37.092Z,13.2
2019-03-15T12:10:36.129Z,13.1
2019-03-15T12:11:34.772Z,13.11
2019-03-15T12:12:33.466Z,13.05
2019-03-15T12:13:32.174Z,13.11
2019-03-15T12:14:40.351Z,13.19
2019-03-15T12:15:30.187Z,13.2
2019-03-15T12:16:28.783Z,13.19
2019-03-15T12:17:27.511Z,13.22
2019-03-15T12:18:26.293Z,13.23
2019-03-15T12:19:24.939Z,13.32
2019-03-15T12:20:23.611Z,13.25
2019-03-15T12:21:22.315Z,13.39
2019-03-15T12:22:20.875Z,13.22
2019-03-15T12:23:19.737Z,13.29
2019-03-15T12:24:18.394Z,13.32
2019-03-15T12:25:16.981Z,13.42
2019-03-15T12:26:15.676Z,13.33
2019-03-15T12:27:14.281Z,13.32
2019-03-15T12:28:13.549Z,13.28
2019-03-15T12:29:12.242Z,13.32
2019-03-15T12:30:10.959Z,13.28
2019-03-15T12:31:09.587Z,13.25
2019-03-15T12:33:49.907Z,13.33
2019-03-15T12:34:48.450Z,13.36
2019-03-15T12:35:47.098Z,13.36
2019-03-15T12:39:25.992Z,13.39
2019-03-15T12:40:24.629Z,13.36
2019-03-15T12:41:24.748Z,13.33
2019-03-15T12:42:22.273Z,13.32
2019-03-15T12:43:20.911Z,13.33
2019-03-15T13:07:48.784Z,13.59
2019-03-15T13:08:47.541Z,13.6
2019-03-15T13:09:46.273Z,13.55
2019-03-15T13:10:44.944Z,13.64
2019-03-15T13:11:43.583Z,13.66
2019-03-15T13:12:42.667Z,13.64
2019-03-15T13:13:41.471Z,13.71
2019-03-15T13:14:40.111Z,13.64
2019-03-15T13:15:38.799Z,13.71
2019-03-15T13:16:37.548Z,13.75
2019-03-15T13:17:36.301Z,13.67
2019-03-15T13:18:34.916Z,13.82
2019-03-15T13:19:33.793Z,13.79
2019-03-15T13:20:32.471Z,13.81
2019-03-15T13:21:31.176Z,13.77
2019-03-15T13:22:30.040Z,13.81
2019-03-15T13:23:28.609Z,13.62
2019-03-15T13:24:29.633Z,13.62
2019-03-15T13:25:26.462Z,13.6
2019-03-15T13:26:25.037Z,13.73
2019-03-15T13:27:23.818Z,13.62
2019-03-15T13:28:22.460Z,13.63
2019-03-15T13:29:21.189Z,13.7
2019-03-15T13:30:19.990Z,13.78
2019-03-15T13:31:18.688Z,13.77
2019-03-15T13:32:17.329Z,13.78
2019-03-15T13:33:20.638Z,13.78
2019-03-15T13:34:14.593Z,13.78
2019-03-15T13:35:13.450Z,13.82
2019-03-15T13:36:12.119Z,13.81
2019-03-15T13:37:10.696Z,13.79
2019-03-15T13:38:09.305Z,13.6
2019-03-15T13:39:07.959Z,13.67
2019-03-15T13:40:06.573Z,13.52
2019-03-15T13:41:05.267Z,13.55
2019-03-15T13:42:03.910Z,13.55
2019-03-15T13:43:02.588Z,13.59
2019-03-15T13:44:01.475Z,13.57
2019-03-15T13:45:00.270Z,13.59
2019-03-15T13:45:58.958Z,13.63
2019-03-15T13:46:57.732Z,13.62
2019-03-15T13:47:56.737Z,13.63
2019-03-15T13:48:56.091Z,13.51
2019-03-15T13:49:54.697Z,13.51
2019-03-15T13:50:53.365Z,13.55
2019-03-15T13:51:52.076Z,13.55
2019-03-15T13:52:50.872Z,13.54
2019-03-15T13:53:49.546Z,13.55
2019-03-15T13:54:48.275Z,13.57
2019-03-15T13:55:47.057Z,13.6
2019-03-15T13:56:48.340Z,13.6
2019-03-15T13:57:44.659Z,13.57
2019-03-15T13:58:52.564Z,13.6
2019-03-15T13:59:42.114Z,13.59
2019-03-15T14:00:40.732Z,13.57
2019-03-15T14:01:40.231Z,13.6
2019-03-15T14:04:20.616Z,13.57
2019-03-15T14:05:19.533Z,13.55
2019-03-15T14:06:18.351Z,13.66
2019-03-15T14:07:19.811Z,13.55
2019-03-15T14:08:16.315Z,13.62
2019-03-15T14:09:15.290Z,13.71
2019-03-15T14:10:14.074Z,13.69
2019-03-15T14:11:13.613Z,13.75
2019-03-15T14:12:12.234Z,13.63
2019-03-15T14:13:12.578Z,13.64
2019-03-15T14:14:11.401Z,13.69
2019-03-15T14:15:10.386Z,13.73
2019-03-15T14:16:09.011Z,13.78
2019-03-15T14:17:07.641Z,13.78
2019-03-15T14:18:06.434Z,13.67
2019-03-15T14:19:05.070Z,13.66
2019-03-15T14:20:03.713Z,13.63
2019-03-15T14:21:02.373Z,13.77
2019-03-15T14:22:01.359Z,13.81
2019-03-15T14:23:00.083Z,13.62
2019-03-15T14:23:58.724Z,13.64